TimeCST,TemperatureF,Dew PointF,Humidity,Sea Level PressureIn,VisibilityMPH,Wind Direction,Wind SpeedMPH,Gust SpeedMPH,PrecipitationIn,Events,Conditions,WindDirDegrees,DateUTC
12:15 AM,41.0,37.4,87,30.04,10.0,North,12.7,21.9,N/A,,Overcast,350,2013-02-08 06:15:00
12:55 AM,39.2,35.6,87,30.05,10.0,NNW,8.1,-,N/A,,Overcast,340,2013-02-08 06:55:00
1:15 AM,39.2,35.6,87,30.06,10.0,NW,15.0,19.6,N/A,,Overcast,320,2013-02-08 07:15:00
1:35 AM,39.2,35.6,87,30.07,10.0,NNW,9.2,19.6,N/A,,Overcast,330,2013-02-08 07:35:00
1:55 AM,39.2,35.6,87,30.07,10.0,NNW,10.4,16.1,N/A,,Overcast,330,2013-02-08 07:55:00
2:15 AM,39.2,35.6,87,30.07,10.0,NW,12.7,16.1,N/A,,Overcast,310,2013-02-08 08:15:00
2:35 AM,39.2,33.8,81,30.08,7.0,NW,11.5,19.6,N/A,,Overcast,310,2013-02-08 08:35:00
2:55 AM,37.4,33.8,87,30.08,5.0,NNW,11.5,21.9,N/A,,Overcast,330,2013-02-08 08:55:00
3:35 AM,37.4,33.8,87,30.10,5.0,NW,11.5,18.4,N/A,,Overcast,310,2013-02-08 09:35:00
3:55 AM,37.4,33.8,87,30.12,4.0,NW,10.4,-,N/A,,Overcast,320,2013-02-08 09:55:00
4:15 AM,37.4,33.8,87,30.12,4.0,NW,11.5,17.3,N/A,,Overcast,310,2013-02-08 10:15:00
4:35 AM,35.6,33.8,93,30.13,3.0,NW,10.4,-,N/A,,Overcast,310,2013-02-08 10:35:00
4:55 AM,35.6,32.0,87,30.14,5.0,NNW,9.2,-,N/A,,Overcast,340,2013-02-08 10:55:00
5:15 AM,35.6,32.0,87,30.15,5.0,NNW,10.4,17.3,N/A,,Overcast,330,2013-02-08 11:15:00
5:35 AM,35.6,30.2,81,30.16,5.0,NW,13.8,19.6,N/A,,Overcast,320,2013-02-08 11:35:00
6:15 AM,35.6,30.2,81,30.19,5.0,NW,13.8,20.7,N/A,,Overcast,320,2013-02-08 12:15:00
6:35 AM,35.6,30.2,81,30.20,4.0,NW,12.7,16.1,N/A,,Overcast,320,2013-02-08 12:35:00
6:55 AM,35.6,30.2,81,30.22,5.0,NW,10.4,17.3,N/A,,Overcast,320,2013-02-08 12:55:00
7:15 AM,33.8,28.4,81,30.23,4.0,NW,12.7,-,N/A,,Overcast,310,2013-02-08 13:15:00
7:35 AM,33.8,30.2,87,30.24,3.0,NNW,12.7,18.4,N/A,,Overcast,330,2013-02-08 13:35:00
7:55 AM,33.8,30.2,87,30.25,3.0,NNW,12.7,18.4,N/A,,Overcast,330,2013-02-08 13:55:00
8:15 AM,33.8,28.4,81,30.26,3.0,NNW,10.4,-,N/A,,Overcast,330,2013-02-08 14:15:00
8:35 AM,33.8,28.4,81,30.27,3.0,North,8.1,-,N/A,,Overcast,360,2013-02-08 14:35:00
8:55 AM,33.8,28.4,81,30.28,5.0,North,9.2,-,N/A,,Overcast,350,2013-02-08 14:55:00
9:15 AM,33.8,28.4,81,30.29,3.0,North,9.2,-,N/A,,Overcast,350,2013-02-08 15:15:00
9:35 AM,33.8,28.4,81,30.29,4.0,North,10.4,-,N/A,,Overcast,350,2013-02-08 15:35:00
9:55 AM,33.8,28.4,81,30.30,5.0,North,8.1,-,N/A,,Overcast,350,2013-02-08 15:55:00
10:15 AM,33.8,28.4,81,30.31,7.0,North,10.4,17.3,N/A,,Overcast,350,2013-02-08 16:15:00
10:35 AM,33.8,28.4,81,30.31,7.0,North,9.2,-,N/A,,Overcast,350,2013-02-08 16:35:00
10:55 AM,33.8,28.4,81,30.32,7.0,North,8.1,-,N/A,,Overcast,10,2013-02-08 16:55:00
11:15 AM,33.8,28.4,81,30.32,8.0,North,9.2,-,N/A,,Overcast,350,2013-02-08 17:15:00
11:35 AM,33.8,28.4,81,30.32,9.0,North,8.1,-,N/A,,Overcast,350,2013-02-08 17:35:00
11:55 AM,33.8,28.4,81,30.31,7.0,NNW,11.5,-,N/A,,Overcast,330,2013-02-08 17:55:00
12:15 PM,33.8,28.4,81,30.31,8.0,NNW,10.4,-,N/A,,Overcast,340,2013-02-08 18:15:00
12:35 PM,33.8,28.4,81,30.31,10.0,North,9.2,-,N/A,,Overcast,10,2013-02-08 18:35:00
12:55 PM,33.8,26.6,75,30.31,10.0,NNW,8.1,-,N/A,,Overcast,340,2013-02-08 18:55:00
1:15 PM,35.6,28.4,75,30.31,10.0,North,6.9,-,N/A,,Overcast,350,2013-02-08 19:15:00
1:35 PM,35.6,26.6,70,30.31,10.0,NNE,8.1,-,N/A,,Overcast,20,2013-02-08 19:35:00
1:55 PM,35.6,26.6,70,30.31,10.0,NNE,6.9,-,N/A,,Overcast,20,2013-02-08 19:55:00
2:15 PM,35.6,26.6,70,30.31,10.0,North,5.8,-,N/A,,Overcast,10,2013-02-08 20:15:00
2:35 PM,35.6,26.6,70,30.31,10.0,NNE,6.9,-,N/A,,Overcast,20,2013-02-08 20:35:00
2:55 PM,35.6,26.6,70,30.30,10.0,North,6.9,-,N/A,,Overcast,350,2013-02-08 20:55:00
3:15 PM,35.6,26.6,70,30.31,10.0,NE,6.9,-,N/A,,Overcast,50,2013-02-08 21:15:00
3:35 PM,35.6,26.6,70,30.32,10.0,NNE,6.9,-,N/A,,Overcast,30,2013-02-08 21:35:00
3:55 PM,35.6,26.6,70,30.33,10.0,North,4.6,-,N/A,,Overcast,360,2013-02-08 21:55:00
4:15 PM,35.6,26.6,70,30.35,10.0,NNW,8.1,-,N/A,,Overcast,330,2013-02-08 22:15:00
4:35 PM,35.6,26.6,70,30.37,10.0,NW,5.8,-,N/A,,Overcast,320,2013-02-08 22:35:00
4:55 PM,35.6,26.6,70,30.34,10.0,NE,6.9,-,N/A,,Overcast,40,2013-02-08 22:55:00
5:15 PM,33.8,26.6,75,30.35,10.0,NNE,4.6,-,N/A,,Overcast,30,2013-02-08 23:15:00
5:35 PM,35.6,26.6,70,30.34,10.0,NE,6.9,-,N/A,,Overcast,40,2013-02-08 23:35:00
5:55 PM,33.8,26.6,75,30.32,10.0,ENE,6.9,-,N/A,,Overcast,60,2013-02-08 23:55:00
6:15 PM,33.8,26.6,75,30.32,10.0,ENE,9.2,-,N/A,,Overcast,60,2013-02-09 00:15:00
6:35 PM,33.8,26.6,75,30.32,10.0,NE,9.2,-,N/A,,Overcast,50,2013-02-09 00:35:00
6:55 PM,33.8,26.6,75,30.33,10.0,NE,6.9,-,N/A,,Overcast,50,2013-02-09 00:55:00
7:15 PM,33.8,26.6,75,30.34,10.0,NE,6.9,-,N/A,,Overcast,50,2013-02-09 01:15:00
7:35 PM,33.8,26.6,75,30.34,10.0,ENE,5.8,-,N/A,,Overcast,70,2013-02-09 01:35:00
7:55 PM,33.8,26.6,75,30.35,10.0,NE,4.6,-,N/A,,Overcast,40,2013-02-09 01:55:00
8:15 PM,33.8,26.6,75,30.36,10.0,NNE,3.5,-,N/A,,Overcast,30,2013-02-09 02:15:00
8:35 PM,33.8,26.6,75,30.34,10.0,ENE,8.1,-,N/A,,Overcast,60,2013-02-09 02:35:00
8:55 PM,33.8,26.6,75,30.34,10.0,East,6.9,-,N/A,,Overcast,80,2013-02-09 02:55:00
9:15 PM,33.8,26.6,75,30.34,10.0,ESE,8.1,-,N/A,,Overcast,110,2013-02-09 03:15:00
9:35 PM,33.8,26.6,75,30.36,10.0,East,6.9,-,N/A,,Overcast,100,2013-02-09 03:35:00
9:55 PM,32.0,26.6,80,30.35,10.0,ESE,6.9,-,N/A,,Overcast,110,2013-02-09 03:55:00
10:15 PM,32.0,26.6,80,30.34,10.0,ENE,6.9,-,N/A,,Overcast,70,2013-02-09 04:15:00
10:35 PM,32.0,26.6,80,30.34,10.0,East,6.9,-,N/A,,Overcast,80,2013-02-09 04:35:00
10:55 PM,32.0,24.8,75,30.34,10.0,East,8.1,-,N/A,,Overcast,90,2013-02-09 04:55:00
11:15 PM,30.2,24.8,80,30.34,10.0,East,6.9,-,N/A,,Overcast,80,2013-02-09 05:15:00
11:35 PM,30.2,26.6,86,30.33,10.0,ENE,8.1,-,N/A,,Overcast,70,2013-02-09 05:35:00
11:55 PM,30.2,24.8,80,30.33,10.0,East,9.2,-,N/A,,Overcast,90,2013-02-09 05:55:00